sensor_id;sensor_type;location;lat;lon;timestamp;P1;durP1;ratioP1;P2;durP2;ratioP2
3847;SDS011;1939;48.720;9.166;2023-04-25T00:00:07;4.60;;;3.37;;
3847;SDS011;1939;48.720;9.166;2023-04-25T00:02:33;4.53;;;3.57;;
3847;SDS011;1939;48.720;9.166;2023-04-25T00:05:00;4.33;;;3.33;;
3847;SDS011;1939;48.720;9.166;2023-04-25T00:07:26;3.83;;;3.43;;
3847;SDS011;1939;48.720;9.166;2023-04-25T00:09:52;3.03;;;2.60;;
3847;SDS011;1939;48.720;9.166;2023-04-25T00:12:17;4.57;;;3.60;;
3847;SDS011;1939;48.720;9.166;2023-04-25T00:14:42;3.30;;;2.80;;
3847;SDS011;1939;48.720;9.166;2023-04-25T00:17:07;4.20;;;3.27;;
3847;SDS011;1939;48.720;9.166;2023-04-25T00:19:33;3.87;;;3.00;;
3847;SDS011;1939;48.720;9.166;2023-04-25T00:21:59;4.90;;;3.13;;
3847;SDS011;1939;48.720;9.166;2023-04-25T00:24:25;4.97;;;3.23;;
3847;SDS011;1939;48.720;9.166;2023-04-25T00:26:50;7.10;;;3.20;;
3847;SDS011;1939;48.720;9.166;2023-04-25T00:29:15;5.50;;;3.10;;
3847;SDS011;1939;48.720;9.166;2023-04-25T00:31:40;5.40;;;3.60;;
3847;SDS011;1939;48.720;9.166;2023-04-25T00:34:06;5.33;;;3.37;;
3847;SDS011;1939;48.720;9.166;2023-04-25T00:36:31;3.47;;;2.70;;
3847;SDS011;1939;48.720;9.166;2023-04-25T00:38:56;3.50;;;3.20;;
3847;SDS011;1939;48.720;9.166;2023-04-25T00:41:22;4.57;;;3.10;;
3847;SDS011;1939;48.720;9.166;2023-04-25T00:43:48;4.03;;;2.80;;
3847;SDS011;1939;48.720;9.166;2023-04-25T00:46:13;5.90;;;3.00;;
3847;SDS011;1939;48.720;9.166;2023-04-25T00:48:38;3.80;;;3.17;;
3847;SDS011;1939;48.720;9.166;2023-04-25T00:51:03;7.73;;;3.40;;
3847;SDS011;1939;48.720;9.166;2023-04-25T00:53:29;4.50;;;3.17;;
3847;SDS011;1939;48.720;9.166;2023-04-25T00:55:55;6.67;;;4.20;;
3847;SDS011;1939;48.720;9.166;2023-04-25T00:58:20;4.03;;;3.13;;
3847;SDS011;1939;48.720;9.166;2023-04-25T01:00:47;3.97;;;3.30;;
3847;SDS011;1939;48.720;9.166;2023-04-25T01:03:16;5.47;;;3.57;;
3847;SDS011;1939;48.720;9.166;2023-04-25T01:05:42;4.60;;;3.27;;
3847;SDS011;1939;48.720;9.166;2023-04-25T01:08:07;5.10;;;3.50;;
3847;SDS011;1939;48.720;9.166;2023-04-25T01:10:33;7.33;;;3.53;;
3847;SDS011;1939;48.720;9.166;2023-04-25T01:12:58;6.87;;;3.93;;
3847;SDS011;1939;48.720;9.166;2023-04-25T01:15:23;5.23;;;3.40;;
3847;SDS011;1939;48.720;9.166;2023-04-25T01:17:49;3.23;;;2.90;;
3847;SDS011;1939;48.720;9.166;2023-04-25T01:20:14;8.07;;;3.60;;
3847;SDS011;1939;48.720;9.166;2023-04-25T01:22:41;5.10;;;3.73;;
3847;SDS011;1939;48.720;9.166;2023-04-25T01:25:06;4.13;;;3.23;;
3847;SDS011;1939;48.720;9.166;2023-04-25T01:27:32;5.60;;;3.70;;
3847;SDS011;1939;48.720;9.166;2023-04-25T01:29:57;3.73;;;3.33;;
3847;SDS011;1939;48.720;9.166;2023-04-25T01:32:22;5.00;;;3.60;;
3847;SDS011;1939;48.720;9.166;2023-04-25T01:34:48;10.10;;;3.43;;
3847;SDS011;1939;48.720;9.166;2023-04-25T01:37:13;6.43;;;3.70;;
3847;SDS011;1939;48.720;9.166;2023-04-25T01:39:39;4.83;;;3.73;;
3847;SDS011;1939;48.720;9.166;2023-04-25T01:42:04;12.70;;;4.40;;
3847;SDS011;1939;48.720;9.166;2023-04-25T01:44:29;9.37;;;4.57;;
3847;SDS011;1939;48.720;9.166;2023-04-25T01:46:54;8.10;;;5.73;;
3847;SDS011;1939;48.720;9.166;2023-04-25T01:49:20;6.30;;;4.30;;
3847;SDS011;1939;48.720;9.166;2023-04-25T01:51:45;5.10;;;4.10;;
3847;SDS011;1939;48.720;9.166;2023-04-25T01:54:10;6.70;;;4.90;;
3847;SDS011;1939;48.720;9.166;2023-04-25T01:56:37;7.27;;;4.40;;
3847;SDS011;1939;48.720;9.166;2023-04-25T01:59:02;5.57;;;3.27;;
3847;SDS011;1939;48.720;9.166;2023-04-25T02:01:28;6.53;;;3.57;;
3847;SDS011;1939;48.720;9.166;2023-04-25T02:03:53;4.50;;;3.17;;
3847;SDS011;1939;48.720;9.166;2023-04-25T02:06:18;5.97;;;2.63;;
3847;SDS011;1939;48.720;9.166;2023-04-25T02:08:44;8.33;;;2.87;;
3847;SDS011;1939;48.720;9.166;2023-04-25T02:11:09;6.80;;;2.93;;
3847;SDS011;1939;48.720;9.166;2023-04-25T02:13:34;5.00;;;2.23;;
3847;SDS011;1939;48.720;9.166;2023-04-25T02:15:59;2.57;;;2.20;;
3847;SDS011;1939;48.720;9.166;2023-04-25T02:18:24;3.87;;;2.40;;
3847;SDS011;1939;48.720;9.166;2023-04-25T02:20:51;4.87;;;2.43;;
3847;SDS011;1939;48.720;9.166;2023-04-25T02:23:16;3.87;;;2.07;;
3847;SDS011;1939;48.720;9.166;2023-04-25T02:25:44;3.97;;;2.70;;
3847;SDS011;1939;48.720;9.166;2023-04-25T02:28:09;3.63;;;2.83;;
3847;SDS011;1939;48.720;9.166;2023-04-25T02:30:34;2.77;;;2.40;;
3847;SDS011;1939;48.720;9.166;2023-04-25T02:33:00;2.97;;;2.37;;
3847;SDS011;1939;48.720;9.166;2023-04-25T02:35:25;5.53;;;2.70;;
3847;SDS011;1939;48.720;9.166;2023-04-25T02:37:50;3.03;;;2.73;;
3847;SDS011;1939;48.720;9.166;2023-04-25T02:40:16;2.80;;;2.40;;
3847;SDS011;1939;48.720;9.166;2023-04-25T02:42:41;3.43;;;2.30;;
3847;SDS011;1939;48.720;9.166;2023-04-25T02:45:06;6.20;;;2.93;;
3847;SDS011;1939;48.720;9.166;2023-04-25T02:47:32;5.40;;;3.00;;
3847;SDS011;1939;48.720;9.166;2023-04-25T02:49:57;3.10;;;2.43;;
3847;SDS011;1939;48.720;9.166;2023-04-25T02:52:22;6.80;;;2.93;;
3847;SDS011;1939;48.720;9.166;2023-04-25T02:54:47;7.43;;;2.63;;
3847;SDS011;1939;48.720;9.166;2023-04-25T02:57:13;5.53;;;2.63;;
3847;SDS011;1939;48.720;9.166;2023-04-25T02:59:38;5.40;;;2.47;;
3847;SDS011;1939;48.720;9.166;2023-04-25T03:02:03;2.80;;;2.43;;
3847;SDS011;1939;48.720;9.166;2023-04-25T03:04:28;5.03;;;2.57;;
3847;SDS011;1939;48.720;9.166;2023-04-25T03:06:54;5.37;;;2.70;;
3847;SDS011;1939;48.720;9.166;2023-04-25T03:09:19;5.23;;;2.87;;
3847;SDS011;1939;48.720;9.166;2023-04-25T03:11:45;11.67;;;3.40;;
3847;SDS011;1939;48.720;9.166;2023-04-25T03:14:10;5.60;;;2.93;;
3847;SDS011;1939;48.720;9.166;2023-04-25T03:16:35;6.33;;;2.40;;
3847;SDS011;1939;48.720;9.166;2023-04-25T03:19:01;4.00;;;2.93;;
3847;SDS011;1939;48.720;9.166;2023-04-25T03:21:27;3.10;;;2.50;;
3847;SDS011;1939;48.720;9.166;2023-04-25T03:23:52;3.37;;;2.40;;
3847;SDS011;1939;48.720;9.166;2023-04-25T03:26:17;6.97;;;2.63;;
3847;SDS011;1939;48.720;9.166;2023-04-25T03:28:42;3.70;;;3.00;;
3847;SDS011;1939;48.720;9.166;2023-04-25T03:31:08;4.03;;;2.90;;
3847;SDS011;1939;48.720;9.166;2023-04-25T03:33:33;6.23;;;3.23;;
3847;SDS011;1939;48.720;9.166;2023-04-25T03:35:58;8.63;;;3.00;;
3847;SDS011;1939;48.720;9.166;2023-04-25T03:38:23;3.67;;;2.50;;
3847;SDS011;1939;48.720;9.166;2023-04-25T03:40:49;3.30;;;2.40;;
3847;SDS011;1939;48.720;9.166;2023-04-25T03:43:15;4.33;;;3.17;;
3847;SDS011;1939;48.720;9.166;2023-04-25T03:45:41;4.47;;;3.30;;
3847;SDS011;1939;48.720;9.166;2023-04-25T03:48:06;5.57;;;3.00;;
3847;SDS011;1939;48.720;9.166;2023-04-25T03:50:31;6.43;;;3.27;;
3847;SDS011;1939;48.720;9.166;2023-04-25T03:52:56;4.40;;;3.30;;
3847;SDS011;1939;48.720;9.166;2023-04-25T03:55:21;4.63;;;3.30;;
3847;SDS011;1939;48.720;9.166;2023-04-25T03:57:47;6.27;;;4.20;;
3847;SDS011;1939;48.720;9.166;2023-04-25T04:00:12;5.80;;;3.87;;
3847;SDS011;1939;48.720;9.166;2023-04-25T04:02:38;4.63;;;3.63;;
3847;SDS011;1939;48.720;9.166;2023-04-25T04:05:04;3.20;;;2.90;;
3847;SDS011;1939;48.720;9.166;2023-04-25T04:07:29;3.37;;;2.97;;
3847;SDS011;1939;48.720;9.166;2023-04-25T04:09:54;5.47;;;3.10;;
3847;SDS011;1939;48.720;9.166;2023-04-25T04:12:19;7.33;;;3.40;;
3847;SDS011;1939;48.720;9.166;2023-04-25T04:14:45;8.60;;;2.97;;
3847;SDS011;1939;48.720;9.166;2023-04-25T04:17:10;6.03;;;3.60;;
3847;SDS011;1939;48.720;9.166;2023-04-25T04:19:35;9.10;;;4.07;;
3847;SDS011;1939;48.720;9.166;2023-04-25T04:22:01;6.10;;;3.33;;
3847;SDS011;1939;48.720;9.166;2023-04-25T04:24:26;6.50;;;3.10;;
3847;SDS011;1939;48.720;9.166;2023-04-25T04:26:51;4.40;;;3.67;;
3847;SDS011;1939;48.720;9.166;2023-04-25T04:29:17;7.77;;;4.00;;
3847;SDS011;1939;48.720;9.166;2023-04-25T04:31:49;7.70;;;3.57;;
3847;SDS011;1939;48.720;9.166;2023-04-25T04:34:14;11.07;;;4.00;;
3847;SDS011;1939;48.720;9.166;2023-04-25T04:36:41;5.40;;;3.20;;
3847;SDS011;1939;48.720;9.166;2023-04-25T04:39:06;3.93;;;3.50;;
3847;SDS011;1939;48.720;9.166;2023-04-25T04:41:32;6.80;;;3.63;;
3847;SDS011;1939;48.720;9.166;2023-04-25T04:43:57;4.70;;;3.10;;
3847;SDS011;1939;48.720;9.166;2023-04-25T04:46:22;6.47;;;3.13;;
3847;SDS011;1939;48.720;9.166;2023-04-25T04:48:49;5.83;;;4.00;;
3847;SDS011;1939;48.720;9.166;2023-04-25T04:51:14;5.43;;;3.80;;
3847;SDS011;1939;48.720;9.166;2023-04-25T04:53:40;6.37;;;3.77;;
3847;SDS011;1939;48.720;9.166;2023-04-25T04:56:05;5.27;;;3.27;;
3847;SDS011;1939;48.720;9.166;2023-04-25T04:58:30;6.33;;;3.23;;
3847;SDS011;1939;48.720;9.166;2023-04-25T05:00:56;3.57;;;3.20;;
3847;SDS011;1939;48.720;9.166;2023-04-25T05:03:21;4.10;;;3.03;;
3847;SDS011;1939;48.720;9.166;2023-04-25T05:05:47;4.17;;;3.07;;
3847;SDS011;1939;48.720;9.166;2023-04-25T05:08:12;5.33;;;3.30;;
3847;SDS011;1939;48.720;9.166;2023-04-25T05:10:37;4.23;;;3.80;;
3847;SDS011;1939;48.720;9.166;2023-04-25T05:13:02;7.40;;;3.47;;
3847;SDS011;1939;48.720;9.166;2023-04-25T05:15:27;7.03;;;3.40;;
3847;SDS011;1939;48.720;9.166;2023-04-25T05:17:53;5.83;;;4.00;;
3847;SDS011;1939;48.720;9.166;2023-04-25T05:20:18;12.90;;;4.00;;
3847;SDS011;1939;48.720;9.166;2023-04-25T05:22:44;4.83;;;3.60;;
3847;SDS011;1939;48.720;9.166;2023-04-25T05:25:09;3.60;;;2.73;;
3847;SDS011;1939;48.720;9.166;2023-04-25T05:27:35;4.67;;;3.57;;
3847;SDS011;1939;48.720;9.166;2023-04-25T05:30:00;4.50;;;3.50;;
3847;SDS011;1939;48.720;9.166;2023-04-25T05:32:26;8.70;;;4.07;;
3847;SDS011;1939;48.720;9.166;2023-04-25T05:34:51;4.90;;;3.70;;
3847;SDS011;1939;48.720;9.166;2023-04-25T05:37:16;8.17;;;3.90;;
3847;SDS011;1939;48.720;9.166;2023-04-25T05:39:42;7.13;;;3.40;;
3847;SDS011;1939;48.720;9.166;2023-04-25T05:42:07;8.43;;;4.23;;
3847;SDS011;1939;48.720;9.166;2023-04-25T05:44:32;4.27;;;3.87;;
3847;SDS011;1939;48.720;9.166;2023-04-25T05:46:57;6.63;;;3.70;;
3847;SDS011;1939;48.720;9.166;2023-04-25T05:49:23;6.47;;;4.30;;
3847;SDS011;1939;48.720;9.166;2023-04-25T05:51:48;4.43;;;3.43;;
3847;SDS011;1939;48.720;9.166;2023-04-25T05:54:13;6.30;;;4.20;;
3847;SDS011;1939;48.720;9.166;2023-04-25T05:56:38;9.40;;;3.50;;
3847;SDS011;1939;48.720;9.166;2023-04-25T05:59:03;6.30;;;4.63;;
3847;SDS011;1939;48.720;9.166;2023-04-25T06:01:29;7.73;;;3.83;;
3847;SDS011;1939;48.720;9.166;2023-04-25T06:03:54;9.37;;;4.07;;
3847;SDS011;1939;48.720;9.166;2023-04-25T06:06:19;7.27;;;4.47;;
3847;SDS011;1939;48.720;9.166;2023-04-25T06:08:44;10.93;;;5.57;;
3847;SDS011;1939;48.720;9.166;2023-04-25T06:11:10;6.13;;;4.13;;
3847;SDS011;1939;48.720;9.166;2023-04-25T06:13:35;7.97;;;3.40;;
3847;SDS011;1939;48.720;9.166;2023-04-25T06:16:00;8.00;;;3.90;;
3847;SDS011;1939;48.720;9.166;2023-04-25T06:18:25;9.70;;;4.40;;
3847;SDS011;1939;48.720;9.166;2023-04-25T06:20:51;8.30;;;4.00;;
3847;SDS011;1939;48.720;9.166;2023-04-25T06:23:16;9.57;;;4.50;;
3847;SDS011;1939;48.720;9.166;2023-04-25T06:25:41;4.33;;;3.23;;
3847;SDS011;1939;48.720;9.166;2023-04-25T06:28:06;4.73;;;3.80;;
3847;SDS011;1939;48.720;9.166;2023-04-25T06:30:32;3.93;;;2.97;;
3847;SDS011;1939;48.720;9.166;2023-04-25T06:32:57;5.27;;;3.90;;
3847;SDS011;1939;48.720;9.166;2023-04-25T06:35:22;4.20;;;3.00;;
3847;SDS011;1939;48.720;9.166;2023-04-25T06:37:47;4.50;;;3.23;;
3847;SDS011;1939;48.720;9.166;2023-04-25T06:40:13;5.33;;;3.33;;
3847;SDS011;1939;48.720;9.166;2023-04-25T06:42:38;5.30;;;4.40;;
3847;SDS011;1939;48.720;9.166;2023-04-25T06:45:03;7.17;;;3.90;;
3847;SDS011;1939;48.720;9.166;2023-04-25T06:47:28;8.33;;;3.90;;
3847;SDS011;1939;48.720;9.166;2023-04-25T06:49:54;6.30;;;3.63;;
3847;SDS011;1939;48.720;9.166;2023-04-25T06:52:20;5.13;;;3.50;;
3847;SDS011;1939;48.720;9.166;2023-04-25T06:54:45;5.40;;;3.93;;
3847;SDS011;1939;48.720;9.166;2023-04-25T06:57:10;3.77;;;3.40;;
3847;SDS011;1939;48.720;9.166;2023-04-25T06:59:35;7.27;;;3.67;;
3847;SDS011;1939;48.720;9.166;2023-04-25T07:02:01;4.33;;;3.17;;
3847;SDS011;1939;48.720;9.166;2023-04-25T07:04:26;7.90;;;3.13;;
3847;SDS011;1939;48.720;9.166;2023-04-25T07:06:51;5.60;;;4.07;;
3847;SDS011;1939;48.720;9.166;2023-04-25T07:09:16;6.00;;;3.50;;
3847;SDS011;1939;48.720;9.166;2023-04-25T07:11:42;6.47;;;4.37;;
3847;SDS011;1939;48.720;9.166;2023-04-25T07:14:07;4.03;;;3.30;;
3847;SDS011;1939;48.720;9.166;2023-04-25T07:16:32;3.93;;;3.53;;
3847;SDS011;1939;48.720;9.166;2023-04-25T07:18:57;5.43;;;4.13;;
3847;SDS011;1939;48.720;9.166;2023-04-25T07:21:24;7.20;;;5.27;;
3847;SDS011;1939;48.720;9.166;2023-04-25T07:23:50;7.67;;;4.87;;
3847;SDS011;1939;48.720;9.166;2023-04-25T07:26:16;4.70;;;3.90;;
3847;SDS011;1939;48.720;9.166;2023-04-25T07:28:41;6.37;;;3.97;;
3847;SDS011;1939;48.720;9.166;2023-04-25T07:31:06;4.90;;;4.07;;
3847;SDS011;1939;48.720;9.166;2023-04-25T07:33:31;5.67;;;3.97;;
3847;SDS011;1939;48.720;9.166;2023-04-25T07:35:57;6.63;;;4.33;;
3847;SDS011;1939;48.720;9.166;2023-04-25T07:38:22;7.93;;;5.77;;
3847;SDS011;1939;48.720;9.166;2023-04-25T07:40:48;6.87;;;4.17;;
3847;SDS011;1939;48.720;9.166;2023-04-25T07:43:13;11.13;;;4.83;;
3847;SDS011;1939;48.720;9.166;2023-04-25T07:45:41;7.77;;;4.77;;
3847;SDS011;1939;48.720;9.166;2023-04-25T07:48:07;6.57;;;4.80;;
3847;SDS011;1939;48.720;9.166;2023-04-25T07:50:32;7.77;;;4.80;;
3847;SDS011;1939;48.720;9.166;2023-04-25T07:52:57;8.40;;;5.20;;
3847;SDS011;1939;48.720;9.166;2023-04-25T07:55:23;7.50;;;4.90;;
3847;SDS011;1939;48.720;9.166;2023-04-25T07:57:48;5.30;;;4.20;;
3847;SDS011;1939;48.720;9.166;2023-04-25T08:00:13;6.17;;;4.30;;
3847;SDS011;1939;48.720;9.166;2023-04-25T08:02:39;4.40;;;3.50;;
3847;SDS011;1939;48.720;9.166;2023-04-25T08:05:05;7.50;;;4.80;;
3847;SDS011;1939;48.720;9.166;2023-04-25T08:07:33;6.40;;;4.27;;
3847;SDS011;1939;48.720;9.166;2023-04-25T08:09:58;6.30;;;4.50;;
3847;SDS011;1939;48.720;9.166;2023-04-25T08:12:23;6.37;;;5.33;;
3847;SDS011;1939;48.720;9.166;2023-04-25T08:14:49;9.60;;;6.07;;
3847;SDS011;1939;48.720;9.166;2023-04-25T08:17:14;8.60;;;5.30;;
3847;SDS011;1939;48.720;9.166;2023-04-25T08:19:40;11.50;;;5.73;;
3847;SDS011;1939;48.720;9.166;2023-04-25T08:22:05;10.57;;;5.30;;
3847;SDS011;1939;48.720;9.166;2023-04-25T08:24:30;8.43;;;6.27;;
3847;SDS011;1939;48.720;9.166;2023-04-25T08:26:55;7.27;;;5.33;;
3847;SDS011;1939;48.720;9.166;2023-04-25T08:29:21;9.03;;;5.77;;
3847;SDS011;1939;48.720;9.166;2023-04-25T08:31:48;7.67;;;4.73;;
3847;SDS011;1939;48.720;9.166;2023-04-25T08:34:13;8.83;;;5.00;;
3847;SDS011;1939;48.720;9.166;2023-04-25T08:36:38;9.43;;;5.10;;
3847;SDS011;1939;48.720;9.166;2023-04-25T08:39:04;9.07;;;5.67;;
3847;SDS011;1939;48.720;9.166;2023-04-25T08:41:29;10.53;;;5.50;;
3847;SDS011;1939;48.720;9.166;2023-04-25T08:43:55;7.57;;;5.17;;
3847;SDS011;1939;48.720;9.166;2023-04-25T08:46:21;13.87;;;7.50;;
3847;SDS011;1939;48.720;9.166;2023-04-25T08:48:46;9.03;;;5.67;;
3847;SDS011;1939;48.720;9.166;2023-04-25T08:51:23;8.13;;;5.77;;
3847;SDS011;1939;48.720;9.166;2023-04-25T08:53:53;9.10;;;5.70;;
3847;SDS011;1939;48.720;9.166;2023-04-25T08:56:18;8.43;;;5.50;;
3847;SDS011;1939;48.720;9.166;2023-04-25T08:58:47;7.67;;;5.00;;
3847;SDS011;1939;48.720;9.166;2023-04-25T09:01:12;10.30;;;5.10;;
3847;SDS011;1939;48.720;9.166;2023-04-25T09:03:38;8.03;;;5.90;;
3847;SDS011;1939;48.720;9.166;2023-04-25T09:06:03;9.70;;;5.73;;
3847;SDS011;1939;48.720;9.166;2023-04-25T09:08:28;12.30;;;6.00;;
3847;SDS011;1939;48.720;9.166;2023-04-25T09:10:54;7.20;;;5.07;;
3847;SDS011;1939;48.720;9.166;2023-04-25T09:13:26;7.37;;;4.93;;
3847;SDS011;1939;48.720;9.166;2023-04-25T09:15:52;9.30;;;5.50;;
3847;SDS011;1939;48.720;9.166;2023-04-25T09:18:22;10.00;;;5.90;;
3847;SDS011;1939;48.720;9.166;2023-04-25T09:20:47;8.60;;;5.73;;
3847;SDS011;1939;48.720;9.166;2023-04-25T09:23:13;10.57;;;5.70;;
3847;SDS011;1939;48.720;9.166;2023-04-25T09:25:39;8.73;;;6.20;;
3847;SDS011;1939;48.720;9.166;2023-04-25T09:28:05;8.93;;;4.90;;
3847;SDS011;1939;48.720;9.166;2023-04-25T09:30:31;10.07;;;4.83;;
3847;SDS011;1939;48.720;9.166;2023-04-25T09:32:57;7.47;;;5.50;;
3847;SDS011;1939;48.720;9.166;2023-04-25T09:35:24;8.30;;;5.80;;
3847;SDS011;1939;48.720;9.166;2023-04-25T09:37:50;6.67;;;4.90;;
3847;SDS011;1939;48.720;9.166;2023-04-25T09:40:15;6.27;;;4.83;;
3847;SDS011;1939;48.720;9.166;2023-04-25T09:42:42;10.00;;;6.73;;
3847;SDS011;1939;48.720;9.166;2023-04-25T09:45:08;5.97;;;4.77;;
3847;SDS011;1939;48.720;9.166;2023-04-25T09:47:37;7.73;;;3.47;;
3847;SDS011;1939;48.720;9.166;2023-04-25T09:50:03;4.47;;;3.47;;
3847;SDS011;1939;48.720;9.166;2023-04-25T09:52:38;5.87;;;4.60;;
3847;SDS011;1939;48.720;9.166;2023-04-25T09:55:03;4.90;;;4.10;;
3847;SDS011;1939;48.720;9.166;2023-04-25T09:57:28;7.23;;;3.93;;
3847;SDS011;1939;48.720;9.166;2023-04-25T09:59:54;5.73;;;4.33;;
3847;SDS011;1939;48.720;9.166;2023-04-25T10:02:21;6.97;;;4.20;;
3847;SDS011;1939;48.720;9.166;2023-04-25T10:04:50;6.00;;;3.83;;
3847;SDS011;1939;48.720;9.166;2023-04-25T10:07:18;5.93;;;3.30;;
3847;SDS011;1939;48.720;9.166;2023-04-25T10:09:43;3.20;;;2.50;;
3847;SDS011;1939;48.720;9.166;2023-04-25T10:12:10;5.90;;;3.43;;
3847;SDS011;1939;48.720;9.166;2023-04-25T10:14:36;4.30;;;3.03;;
3847;SDS011;1939;48.720;9.166;2023-04-25T10:17:01;4.17;;;1.90;;
3847;SDS011;1939;48.720;9.166;2023-04-25T10:19:26;3.70;;;2.43;;
3847;SDS011;1939;48.720;9.166;2023-04-25T10:24:17;2.30;;;1.70;;
3847;SDS011;1939;48.720;9.166;2023-04-25T10:26:42;2.30;;;1.40;;
3847;SDS011;1939;48.720;9.166;2023-04-25T10:29:08;1.30;;;1.03;;
3847;SDS011;1939;48.720;9.166;2023-04-25T10:31:34;2.37;;;1.20;;
3847;SDS011;1939;48.720;9.166;2023-04-25T10:34:09;2.17;;;1.40;;
3847;SDS011;1939;48.720;9.166;2023-04-25T10:36:34;1.60;;;1.33;;
3847;SDS011;1939;48.720;9.166;2023-04-25T10:39:03;1.13;;;1.00;;
3847;SDS011;1939;48.720;9.166;2023-04-25T10:41:31;1.13;;;0.90;;
3847;SDS011;1939;48.720;9.166;2023-04-25T10:44:00;1.20;;;1.00;;
3847;SDS011;1939;48.720;9.166;2023-04-25T10:46:27;1.23;;;1.13;;
3847;SDS011;1939;48.720;9.166;2023-04-25T10:48:53;1.43;;;1.10;;
3847;SDS011;1939;48.720;9.166;2023-04-25T10:51:20;1.70;;;1.23;;
3847;SDS011;1939;48.720;9.166;2023-04-25T10:56:20;2.07;;;1.10;;
3847;SDS011;1939;48.720;9.166;2023-04-25T10:58:49;1.93;;;1.20;;
3847;SDS011;1939;48.720;9.166;2023-04-25T11:01:15;3.90;;;1.20;;
3847;SDS011;1939;48.720;9.166;2023-04-25T11:03:44;1.23;;;0.87;;
3847;SDS011;1939;48.720;9.166;2023-04-25T11:06:15;1.57;;;1.30;;
3847;SDS011;1939;48.720;9.166;2023-04-25T11:08:48;3.07;;;0.90;;
3847;SDS011;1939;48.720;9.166;2023-04-25T11:11:14;7.40;;;1.10;;
3847;SDS011;1939;48.720;9.166;2023-04-25T11:13:40;3.57;;;1.47;;
3847;SDS011;1939;48.720;9.166;2023-04-25T11:16:09;5.23;;;1.90;;
3847;SDS011;1939;48.720;9.166;2023-04-25T11:18:34;3.17;;;2.47;;
3847;SDS011;1939;48.720;9.166;2023-04-25T11:21:00;3.27;;;2.13;;
3847;SDS011;1939;48.720;9.166;2023-04-25T11:23:25;3.77;;;2.60;;
3847;SDS011;1939;48.720;9.166;2023-04-25T11:25:51;2.47;;;2.20;;
3847;SDS011;1939;48.720;9.166;2023-04-25T11:28:20;7.50;;;2.40;;
3847;SDS011;1939;48.720;9.166;2023-04-25T11:30:49;2.70;;;2.27;;
3847;SDS011;1939;48.720;9.166;2023-04-25T11:33:15;2.90;;;2.40;;
3847;SDS011;1939;48.720;9.166;2023-04-25T11:35:40;5.17;;;2.37;;
3847;SDS011;1939;48.720;9.166;2023-04-25T11:38:06;3.67;;;2.13;;
3847;SDS011;1939;48.720;9.166;2023-04-25T11:40:31;7.13;;;2.43;;
3847;SDS011;1939;48.720;9.166;2023-04-25T11:42:56;6.07;;;2.57;;
3847;SDS011;1939;48.720;9.166;2023-04-25T11:45:24;3.70;;;2.30;;
3847;SDS011;1939;48.720;9.166;2023-04-25T11:47:50;3.57;;;2.67;;
3847;SDS011;1939;48.720;9.166;2023-04-25T11:50:15;3.37;;;2.20;;
3847;SDS011;1939;48.720;9.166;2023-04-25T11:52:47;2.27;;;1.87;;
3847;SDS011;1939;48.720;9.166;2023-04-25T11:55:17;5.60;;;1.90;;
3847;SDS011;1939;48.720;9.166;2023-04-25T11:57:42;2.90;;;2.00;;
3847;SDS011;1939;48.720;9.166;2023-04-25T12:00:19;2.53;;;2.30;;
3847;SDS011;1939;48.720;9.166;2023-04-25T12:02:55;3.73;;;2.43;;
3847;SDS011;1939;48.720;9.166;2023-04-25T12:05:23;3.30;;;2.43;;
3847;SDS011;1939;48.720;9.166;2023-04-25T12:07:48;5.23;;;2.83;;
3847;SDS011;1939;48.720;9.166;2023-04-25T12:10:14;3.93;;;3.53;;
3847;SDS011;1939;48.720;9.166;2023-04-25T12:12:43;4.50;;;3.67;;
3847;SDS011;1939;48.720;9.166;2023-04-25T12:15:10;6.00;;;3.53;;
3847;SDS011;1939;48.720;9.166;2023-04-25T12:17:36;4.10;;;3.33;;
3847;SDS011;1939;48.720;9.166;2023-04-25T12:20:09;5.70;;;3.97;;
3847;SDS011;1939;48.720;9.166;2023-04-25T12:22:34;5.73;;;4.30;;
3847;SDS011;1939;48.720;9.166;2023-04-25T12:24:59;4.53;;;3.47;;
3847;SDS011;1939;48.720;9.166;2023-04-25T12:27:25;4.80;;;3.37;;
3847;SDS011;1939;48.720;9.166;2023-04-25T12:29:52;7.70;;;4.00;;
3847;SDS011;1939;48.720;9.166;2023-04-25T12:32:18;4.33;;;3.43;;
3847;SDS011;1939;48.720;9.166;2023-04-25T12:34:43;6.00;;;4.00;;
3847;SDS011;1939;48.720;9.166;2023-04-25T12:37:08;8.83;;;4.17;;
3847;SDS011;1939;48.720;9.166;2023-04-25T12:39:34;5.97;;;4.40;;
3847;SDS011;1939;48.720;9.166;2023-04-25T12:41:59;8.40;;;5.03;;
3847;SDS011;1939;48.720;9.166;2023-04-25T12:44:25;13.17;;;5.00;;
3847;SDS011;1939;48.720;9.166;2023-04-25T12:46:50;7.40;;;4.87;;
3847;SDS011;1939;48.720;9.166;2023-04-25T12:49:15;9.50;;;5.17;;
3847;SDS011;1939;48.720;9.166;2023-04-25T12:51:40;11.03;;;4.43;;
3847;SDS011;1939;48.720;9.166;2023-04-25T12:54:06;9.53;;;5.40;;
3847;SDS011;1939;48.720;9.166;2023-04-25T12:56:33;5.47;;;4.40;;
3847;SDS011;1939;48.720;9.166;2023-04-25T12:58:58;6.83;;;5.20;;
3847;SDS011;1939;48.720;9.166;2023-04-25T13:01:24;7.13;;;4.80;;
3847;SDS011;1939;48.720;9.166;2023-04-25T13:03:49;5.43;;;4.17;;
3847;SDS011;1939;48.720;9.166;2023-04-25T13:06:15;7.93;;;5.23;;
3847;SDS011;1939;48.720;9.166;2023-04-25T13:08:41;5.90;;;4.50;;
3847;SDS011;1939;48.720;9.166;2023-04-25T13:11:07;7.83;;;4.93;;
3847;SDS011;1939;48.720;9.166;2023-04-25T13:13:32;8.30;;;5.00;;
3847;SDS011;1939;48.720;9.166;2023-04-25T13:15:59;8.33;;;5.83;;
3847;SDS011;1939;48.720;9.166;2023-04-25T13:18:25;12.50;;;5.40;;
3847;SDS011;1939;48.720;9.166;2023-04-25T13:20:54;9.43;;;5.07;;
3847;SDS011;1939;48.720;9.166;2023-04-25T13:23:19;10.90;;;5.30;;
3847;SDS011;1939;48.720;9.166;2023-04-25T13:25:47;8.30;;;5.03;;
3847;SDS011;1939;48.720;9.166;2023-04-25T13:28:13;6.60;;;4.90;;
3847;SDS011;1939;48.720;9.166;2023-04-25T13:30:39;6.20;;;4.70;;
3847;SDS011;1939;48.720;9.166;2023-04-25T13:33:04;7.50;;;4.40;;
3847;SDS011;1939;48.720;9.166;2023-04-25T13:35:31;7.37;;;5.40;;
3847;SDS011;1939;48.720;9.166;2023-04-25T13:37:57;8.43;;;4.70;;
3847;SDS011;1939;48.720;9.166;2023-04-25T13:40:22;10.40;;;4.43;;
3847;SDS011;1939;48.720;9.166;2023-04-25T13:42:47;9.07;;;5.80;;
3847;SDS011;1939;48.720;9.166;2023-04-25T13:45:12;7.07;;;4.77;;
3847;SDS011;1939;48.720;9.166;2023-04-25T13:47:38;8.90;;;5.47;;
3847;SDS011;1939;48.720;9.166;2023-04-25T13:50:03;11.03;;;5.30;;
3847;SDS011;1939;48.720;9.166;2023-04-25T13:52:30;9.47;;;6.07;;
3847;SDS011;1939;48.720;9.166;2023-04-25T13:54:55;9.67;;;7.53;;
3847;SDS011;1939;48.720;9.166;2023-04-25T13:57:21;10.80;;;6.80;;
3847;SDS011;1939;48.720;9.166;2023-04-25T13:59:46;10.57;;;6.23;;
3847;SDS011;1939;48.720;9.166;2023-04-25T14:02:11;13.20;;;6.90;;
3847;SDS011;1939;48.720;9.166;2023-04-25T14:04:37;9.27;;;6.73;;
3847;SDS011;1939;48.720;9.166;2023-04-25T14:07:02;14.60;;;8.00;;
3847;SDS011;1939;48.720;9.166;2023-04-25T14:09:27;13.83;;;7.93;;
3847;SDS011;1939;48.720;9.166;2023-04-25T14:11:53;12.57;;;9.10;;
3847;SDS011;1939;48.720;9.166;2023-04-25T14:14:18;10.37;;;6.67;;
3847;SDS011;1939;48.720;9.166;2023-04-25T14:16:44;11.47;;;6.73;;
3847;SDS011;1939;48.720;9.166;2023-04-25T14:19:09;9.17;;;6.63;;
3847;SDS011;1939;48.720;9.166;2023-04-25T14:21:34;9.83;;;6.50;;
3847;SDS011;1939;48.720;9.166;2023-04-25T14:24:00;13.53;;;6.73;;
3847;SDS011;1939;48.720;9.166;2023-04-25T14:26:25;8.27;;;6.43;;
3847;SDS011;1939;48.720;9.166;2023-04-25T14:28:51;8.77;;;6.60;;
3847;SDS011;1939;48.720;9.166;2023-04-25T14:31:16;11.30;;;6.00;;
3847;SDS011;1939;48.720;9.166;2023-04-25T14:33:41;8.20;;;6.43;;
3847;SDS011;1939;48.720;9.166;2023-04-25T14:36:08;9.40;;;5.97;;
3847;SDS011;1939;48.720;9.166;2023-04-25T14:38:33;8.77;;;7.37;;
3847;SDS011;1939;48.720;9.166;2023-04-25T14:40:58;12.07;;;6.90;;
3847;SDS011;1939;48.720;9.166;2023-04-25T14:43:23;6.80;;;5.23;;
3847;SDS011;1939;48.720;9.166;2023-04-25T14:45:49;7.13;;;5.10;;
3847;SDS011;1939;48.720;9.166;2023-04-25T14:48:14;7.30;;;4.87;;
3847;SDS011;1939;48.720;9.166;2023-04-25T14:50:40;6.90;;;4.50;;
3847;SDS011;1939;48.720;9.166;2023-04-25T14:53:05;6.53;;;4.50;;
3847;SDS011;1939;48.720;9.166;2023-04-25T14:55:30;9.90;;;4.40;;
3847;SDS011;1939;48.720;9.166;2023-04-25T14:57:56;5.37;;;4.60;;
3847;SDS011;1939;48.720;9.166;2023-04-25T15:00:21;7.00;;;5.27;;
3847;SDS011;1939;48.720;9.166;2023-04-25T15:02:50;5.33;;;3.70;;
3847;SDS011;1939;48.720;9.166;2023-04-25T15:05:15;6.83;;;3.60;;
3847;SDS011;1939;48.720;9.166;2023-04-25T15:07:41;7.30;;;4.37;;
3847;SDS011;1939;48.720;9.166;2023-04-25T15:10:09;4.83;;;3.87;;